sensor_id;sensor_type;location;lat;lon;timestamp;P1;durP1;ratioP1;P2;durP2;ratioP2
62256;SDS011;48240;52.962;5.790;2023-08-21T03:54:47;2.50;;;1.70;;
62256;SDS011;48240;52.962;5.790;2023-08-21T03:57:13;2.47;;;1.30;;
62256;SDS011;48240;52.962;5.790;2023-08-21T03:59:39;2.05;;;1.10;;
62256;SDS011;48240;52.962;5.790;2023-08-21T04:02:06;1.92;;;1.20;;
62256;SDS011;48240;52.962;5.790;2023-08-21T04:04:32;3.42;;;1.35;;
62256;SDS011;48240;52.962;5.790;2023-08-21T04:06:58;2.00;;;1.40;;
62256;SDS011;48240;52.962;5.790;2023-08-21T04:09:24;3.50;;;1.90;;
62256;SDS011;48240;52.962;5.790;2023-08-21T04:11:50;1.95;;;1.60;;
62256;SDS011;48240;52.962;5.790;2023-08-21T04:14:16;2.13;;;1.30;;
62256;SDS011;48240;52.962;5.790;2023-08-21T04:16:42;3.60;;;1.65;;
62256;SDS011;48240;52.962;5.790;2023-08-21T04:19:08;2.28;;;1.45;;
62256;SDS011;48240;52.962;5.790;2023-08-21T04:21:34;2.40;;;1.38;;
62256;SDS011;48240;52.962;5.790;2023-08-21T04:24:00;2.80;;;1.33;;
62256;SDS011;48240;52.962;5.790;2023-08-21T04:26:26;1.80;;;1.20;;
62256;SDS011;48240;52.962;5.790;2023-08-21T04:28:52;2.30;;;1.20;;
62256;SDS011;48240;52.962;5.790;2023-08-21T04:31:18;1.58;;;1.17;;
62256;SDS011;48240;52.962;5.790;2023-08-21T04:33:44;1.45;;;0.98;;
62256;SDS011;48240;52.962;5.790;2023-08-21T04:36:14;1.98;;;1.20;;
62256;SDS011;48240;52.962;5.790;2023-08-21T04:38:41;2.90;;;1.23;;
62256;SDS011;48240;52.962;5.790;2023-08-21T04:41:07;1.08;;;0.98;;
62256;SDS011;48240;52.962;5.790;2023-08-21T04:43:33;1.67;;;1.10;;
62256;SDS011;48240;52.962;5.790;2023-08-21T04:45:59;1.38;;;1.00;;
62256;SDS011;48240;52.962;5.790;2023-08-21T04:48:26;1.58;;;1.10;;
62256;SDS011;48240;52.962;5.790;2023-08-21T04:50:52;2.17;;;1.13;;
62256;SDS011;48240;52.962;5.790;2023-08-21T04:53:18;1.80;;;1.20;;
62256;SDS011;48240;52.962;5.790;2023-08-21T04:55:44;2.63;;;1.10;;
62256;SDS011;48240;52.962;5.790;2023-08-21T04:58:10;1.02;;;0.93;;
62256;SDS011;48240;52.962;5.790;2023-08-21T05:00:37;2.75;;;1.92;;
62256;SDS011;48240;52.962;5.790;2023-08-21T05:03:03;2.13;;;1.55;;
62256;SDS011;48240;52.962;5.790;2023-08-21T05:05:29;2.95;;;1.30;;
62256;SDS011;48240;52.962;5.790;2023-08-21T05:07:55;2.42;;;1.10;;
62256;SDS011;48240;52.962;5.790;2023-08-21T05:10:21;1.67;;;1.38;;
62256;SDS011;48240;52.962;5.790;2023-08-21T05:12:47;1.65;;;1.00;;
62256;SDS011;48240;52.962;5.790;2023-08-21T05:15:13;2.70;;;1.33;;
62256;SDS011;48240;52.962;5.790;2023-08-21T05:17:40;2.10;;;0.98;;
62256;SDS011;48240;52.962;5.790;2023-08-21T05:20:06;2.40;;;1.20;;
62256;SDS011;48240;52.962;5.790;2023-08-21T05:22:32;1.98;;;1.10;;
62256;SDS011;48240;52.962;5.790;2023-08-21T05:24:58;1.17;;;0.90;;
62256;SDS011;48240;52.962;5.790;2023-08-21T05:27:24;1.98;;;1.13;;
62256;SDS011;48240;52.962;5.790;2023-08-21T05:29:50;5.38;;;2.22;;
62256;SDS011;48240;52.962;5.790;2023-08-21T05:32:16;4.68;;;2.40;;
62256;SDS011;48240;52.962;5.790;2023-08-21T05:34:43;5.15;;;2.45;;
62256;SDS011;48240;52.962;5.790;2023-08-21T05:37:09;6.82;;;2.92;;
62256;SDS011;48240;52.962;5.790;2023-08-21T05:39:35;4.85;;;2.50;;
62256;SDS011;48240;52.962;5.790;2023-08-21T05:42:01;6.40;;;2.92;;
62256;SDS011;48240;52.962;5.790;2023-08-21T05:44:28;8.43;;;2.80;;
62256;SDS011;48240;52.962;5.790;2023-08-21T05:46:54;8.65;;;2.90;;
62256;SDS011;48240;52.962;5.790;2023-08-21T05:49:20;6.20;;;2.80;;
62256;SDS011;48240;52.962;5.790;2023-08-21T05:51:46;6.50;;;2.92;;
62256;SDS011;48240;52.962;5.790;2023-08-21T05:54:12;8.23;;;3.10;;
62256;SDS011;48240;52.962;5.790;2023-08-21T05:56:38;6.03;;;2.60;;
62256;SDS011;48240;52.962;5.790;2023-08-21T05:59:04;7.45;;;3.05;;
62256;SDS011;48240;52.962;5.790;2023-08-21T06:01:30;6.85;;;2.75;;
62256;SDS011;48240;52.962;5.790;2023-08-21T06:03:57;5.50;;;2.80;;
62256;SDS011;48240;52.962;5.790;2023-08-21T06:06:23;5.68;;;2.33;;
62256;SDS011;48240;52.962;5.790;2023-08-21T06:08:49;8.00;;;2.42;;
62256;SDS011;48240;52.962;5.790;2023-08-21T06:11:15;5.38;;;1.70;;
62256;SDS011;48240;52.962;5.790;2023-08-21T06:13:41;4.53;;;1.35;;
62256;SDS011;48240;52.962;5.790;2023-08-21T06:16:07;2.65;;;1.20;;
62256;SDS011;48240;52.962;5.790;2023-08-21T06:18:33;5.45;;;2.13;;
62256;SDS011;48240;52.962;5.790;2023-08-21T06:20:59;6.70;;;2.55;;
62256;SDS011;48240;52.962;5.790;2023-08-21T06:23:25;8.23;;;2.35;;
62256;SDS011;48240;52.962;5.790;2023-08-21T06:25:51;6.50;;;2.63;;
62256;SDS011;48240;52.962;5.790;2023-08-21T06:28:17;4.60;;;2.30;;
62256;SDS011;48240;52.962;5.790;2023-08-21T06:30:44;5.15;;;2.28;;
62256;SDS011;48240;52.962;5.790;2023-08-21T06:33:10;7.10;;;2.00;;
62256;SDS011;48240;52.962;5.790;2023-08-21T06:35:36;6.55;;;2.05;;
62256;SDS011;48240;52.962;5.790;2023-08-21T06:38:03;4.45;;;2.17;;
62256;SDS011;48240;52.962;5.790;2023-08-21T06:40:29;5.22;;;2.00;;
62256;SDS011;48240;52.962;5.790;2023-08-21T06:42:55;5.28;;;1.40;;
62256;SDS011;48240;52.962;5.790;2023-08-21T06:45:21;2.95;;;1.60;;
62256;SDS011;48240;52.962;5.790;2023-08-21T06:47:47;5.90;;;1.92;;
62256;SDS011;48240;52.962;5.790;2023-08-21T06:50:15;8.00;;;1.70;;
62256;SDS011;48240;52.962;5.790;2023-08-21T06:52:41;5.40;;;1.85;;
62256;SDS011;48240;52.962;5.790;2023-08-21T06:55:08;4.63;;;1.45;;
62256;SDS011;48240;52.962;5.790;2023-08-21T06:57:35;3.85;;;1.98;;
62256;SDS011;48240;52.962;5.790;2023-08-21T07:00:03;5.45;;;1.80;;
62256;SDS011;48240;52.962;5.790;2023-08-21T07:02:30;8.50;;;2.03;;
62256;SDS011;48240;52.962;5.790;2023-08-21T07:04:56;7.00;;;1.92;;
62256;SDS011;48240;52.962;5.790;2023-08-21T07:07:22;5.20;;;1.50;;
62256;SDS011;48240;52.962;5.790;2023-08-21T07:09:49;4.90;;;1.55;;
62256;SDS011;48240;52.962;5.790;2023-08-21T07:12:16;4.43;;;1.30;;
62256;SDS011;48240;52.962;5.790;2023-08-21T07:14:42;4.30;;;1.48;;
62256;SDS011;48240;52.962;5.790;2023-08-21T07:17:08;5.47;;;1.13;;
62256;SDS011;48240;52.962;5.790;2023-08-21T07:19:34;3.95;;;1.20;;
62256;SDS011;48240;52.962;5.790;2023-08-21T07:22:00;3.42;;;1.00;;
62256;SDS011;48240;52.962;5.790;2023-08-21T07:24:26;4.50;;;1.20;;
62256;SDS011;48240;52.962;5.790;2023-08-21T07:26:52;4.45;;;1.20;;
62256;SDS011;48240;52.962;5.790;2023-08-21T07:29:18;5.57;;;1.05;;
62256;SDS011;48240;52.962;5.790;2023-08-21T07:31:44;3.88;;;1.30;;
62256;SDS011;48240;52.962;5.790;2023-08-21T07:34:10;6.28;;;1.20;;
62256;SDS011;48240;52.962;5.790;2023-08-21T07:36:36;7.05;;;1.40;;
62256;SDS011;48240;52.962;5.790;2023-08-21T07:39:02;5.18;;;1.50;;
62256;SDS011;48240;52.962;5.790;2023-08-21T07:41:28;3.92;;;1.10;;
62256;SDS011;48240;52.962;5.790;2023-08-21T07:43:54;3.10;;;1.17;;
62256;SDS011;48240;52.962;5.790;2023-08-21T07:46:21;4.90;;;1.17;;
62256;SDS011;48240;52.962;5.790;2023-08-21T07:48:47;3.40;;;1.63;;
62256;SDS011;48240;52.962;5.790;2023-08-21T07:51:13;3.38;;;1.02;;
62256;SDS011;48240;52.962;5.790;2023-08-21T07:53:39;4.65;;;1.13;;
62256;SDS011;48240;52.962;5.790;2023-08-21T07:56:05;2.13;;;0.90;;
62256;SDS011;48240;52.962;5.790;2023-08-21T07:58:31;3.08;;;1.17;;
62256;SDS011;48240;52.962;5.790;2023-08-21T08:00:58;2.78;;;1.10;;
62256;SDS011;48240;52.962;5.790;2023-08-21T08:03:26;2.10;;;1.08;;
62256;SDS011;48240;52.962;5.790;2023-08-21T08:05:52;2.30;;;0.95;;
62256;SDS011;48240;52.962;5.790;2023-08-21T08:08:18;3.15;;;1.02;;
62256;SDS011;48240;52.962;5.790;2023-08-21T08:10:44;2.95;;;1.25;;
62256;SDS011;48240;52.962;5.790;2023-08-21T08:13:10;4.57;;;1.10;;
62256;SDS011;48240;52.962;5.790;2023-08-21T08:15:36;3.78;;;1.30;;
62256;SDS011;48240;52.962;5.790;2023-08-21T08:18:02;3.20;;;0.98;;
62256;SDS011;48240;52.962;5.790;2023-08-21T08:20:29;3.00;;;0.90;;
62256;SDS011;48240;52.962;5.790;2023-08-21T08:22:55;4.50;;;1.15;;
62256;SDS011;48240;52.962;5.790;2023-08-21T08:25:22;2.25;;;1.00;;
62256;SDS011;48240;52.962;5.790;2023-08-21T08:27:48;3.08;;;0.93;;
62256;SDS011;48240;52.962;5.790;2023-08-21T08:30:14;2.20;;;1.15;;
62256;SDS011;48240;52.962;5.790;2023-08-21T08:32:43;2.97;;;1.20;;
62256;SDS011;48240;52.962;5.790;2023-08-21T08:35:11;2.80;;;1.20;;
62256;SDS011;48240;52.962;5.790;2023-08-21T08:37:37;4.68;;;1.38;;
62256;SDS011;48240;52.962;5.790;2023-08-21T08:40:03;2.20;;;1.17;;
62256;SDS011;48240;52.962;5.790;2023-08-21T08:42:29;2.95;;;1.10;;
62256;SDS011;48240;52.962;5.790;2023-08-21T08:44:56;3.63;;;1.00;;
62256;SDS011;48240;52.962;5.790;2023-08-21T08:47:22;1.98;;;1.08;;
62256;SDS011;48240;52.962;5.790;2023-08-21T08:49:49;4.25;;;1.10;;
62256;SDS011;48240;52.962;5.790;2023-08-21T08:52:16;4.90;;;1.17;;
62256;SDS011;48240;52.962;5.790;2023-08-21T08:54:42;2.08;;;0.90;;
62256;SDS011;48240;52.962;5.790;2023-08-21T08:57:09;4.05;;;1.10;;
62256;SDS011;48240;52.962;5.790;2023-08-21T08:59:35;3.50;;;1.20;;
62256;SDS011;48240;52.962;5.790;2023-08-21T09:02:01;3.05;;;1.10;;
62256;SDS011;48240;52.962;5.790;2023-08-21T09:04:27;3.85;;;1.08;;
62256;SDS011;48240;52.962;5.790;2023-08-21T09:07:05;3.08;;;0.90;;
62256;SDS011;48240;52.962;5.790;2023-08-21T09:09:41;2.28;;;0.93;;
62256;SDS011;48240;52.962;5.790;2023-08-21T09:12:11;4.55;;;1.02;;
62256;SDS011;48240;52.962;5.790;2023-08-21T09:14:38;3.88;;;1.20;;
62256;SDS011;48240;52.962;5.790;2023-08-21T09:17:05;3.08;;;0.80;;
62256;SDS011;48240;52.962;5.790;2023-08-21T09:19:32;1.55;;;0.80;;
62256;SDS011;48240;52.962;5.790;2023-08-21T09:21:58;2.20;;;0.90;;
62256;SDS011;48240;52.962;5.790;2023-08-21T09:24:25;2.95;;;0.95;;
62256;SDS011;48240;52.962;5.790;2023-08-21T09:26:51;6.55;;;1.27;;
62256;SDS011;48240;52.962;5.790;2023-08-21T09:29:18;2.60;;;1.00;;
62256;SDS011;48240;52.962;5.790;2023-08-21T09:31:44;3.67;;;0.93;;
62256;SDS011;48240;52.962;5.790;2023-08-21T09:34:11;5.22;;;1.10;;
62256;SDS011;48240;52.962;5.790;2023-08-21T09:36:37;3.15;;;0.75;;
62256;SDS011;48240;52.962;5.790;2023-08-21T09:39:07;3.70;;;1.00;;
62256;SDS011;48240;52.962;5.790;2023-08-21T09:41:41;3.63;;;0.80;;
62256;SDS011;48240;52.962;5.790;2023-08-21T09:44:07;2.03;;;1.00;;
62256;SDS011;48240;52.962;5.790;2023-08-21T09:46:33;2.17;;;1.00;;
62256;SDS011;48240;52.962;5.790;2023-08-21T09:48:59;3.35;;;1.05;;
62256;SDS011;48240;52.962;5.790;2023-08-21T09:51:28;2.00;;;0.88;;
62256;SDS011;48240;52.962;5.790;2023-08-21T09:53:54;2.65;;;1.08;;
62256;SDS011;48240;52.962;5.790;2023-08-21T09:56:22;2.95;;;1.05;;
62256;SDS011;48240;52.962;5.790;2023-08-21T09:58:48;3.95;;;1.02;;
62256;SDS011;48240;52.962;5.790;2023-08-21T10:01:14;4.70;;;1.00;;
62256;SDS011;48240;52.962;5.790;2023-08-21T10:03:42;3.25;;;1.15;;
62256;SDS011;48240;52.962;5.790;2023-08-21T10:06:12;3.35;;;1.30;;
62256;SDS011;48240;52.962;5.790;2023-08-21T10:08:42;2.50;;;1.08;;
62256;SDS011;48240;52.962;5.790;2023-08-21T10:11:10;3.60;;;1.20;;
62256;SDS011;48240;52.962;5.790;2023-08-21T10:13:36;2.53;;;0.90;;
62256;SDS011;48240;52.962;5.790;2023-08-21T10:16:03;3.45;;;1.00;;
62256;SDS011;48240;52.962;5.790;2023-08-21T10:18:34;5.05;;;1.42;;
62256;SDS011;48240;52.962;5.790;2023-08-21T10:21:13;3.70;;;0.90;;
62256;SDS011;48240;52.962;5.790;2023-08-21T10:23:40;3.10;;;1.02;;
62256;SDS011;48240;52.962;5.790;2023-08-21T10:26:06;4.95;;;1.20;;
62256;SDS011;48240;52.962;5.790;2023-08-21T10:34:07;2.95;;;1.20;;
62256;SDS011;48240;52.962;5.790;2023-08-21T10:39:18;3.40;;;1.00;;
62256;SDS011;48240;52.962;5.790;2023-08-21T10:42:04;6.22;;;1.38;;
62256;SDS011;48240;52.962;5.790;2023-08-21T10:49:50;3.28;;;1.40;;
62256;SDS011;48240;52.962;5.790;2023-08-21T10:52:21;5.45;;;1.30;;
62256;SDS011;48240;52.962;5.790;2023-08-21T10:54:49;4.13;;;1.70;;
62256;SDS011;48240;52.962;5.790;2023-08-21T10:57:15;3.45;;;1.33;;
62256;SDS011;48240;52.962;5.790;2023-08-21T10:59:55;5.60;;;1.30;;
62256;SDS011;48240;52.962;5.790;2023-08-21T11:02:22;4.90;;;1.30;;
62256;SDS011;48240;52.962;5.790;2023-08-21T11:04:49;5.70;;;1.25;;
62256;SDS011;48240;52.962;5.790;2023-08-21T11:07:15;2.53;;;1.17;;
62256;SDS011;48240;52.962;5.790;2023-08-21T11:09:41;4.82;;;1.30;;
62256;SDS011;48240;52.962;5.790;2023-08-21T11:12:08;3.30;;;1.05;;
62256;SDS011;48240;52.962;5.790;2023-08-21T11:14:35;5.00;;;1.30;;
62256;SDS011;48240;52.962;5.790;2023-08-21T11:17:01;3.20;;;1.20;;
62256;SDS011;48240;52.962;5.790;2023-08-21T11:19:29;1.85;;;0.95;;
62256;SDS011;48240;52.962;5.790;2023-08-21T11:21:56;6.43;;;1.30;;
62256;SDS011;48240;52.962;5.790;2023-08-21T11:24:22;3.13;;;1.00;;
62256;SDS011;48240;52.962;5.790;2023-08-21T11:26:48;6.05;;;1.30;;
62256;SDS011;48240;52.962;5.790;2023-08-21T11:29:14;2.35;;;1.00;;
62256;SDS011;48240;52.962;5.790;2023-08-21T11:31:40;3.33;;;1.00;;
62256;SDS011;48240;52.962;5.790;2023-08-21T11:34:07;2.40;;;1.00;;
62256;SDS011;48240;52.962;5.790;2023-08-21T11:36:33;2.13;;;0.95;;
62256;SDS011;48240;52.962;5.790;2023-08-21T11:39:00;4.03;;;1.17;;
62256;SDS011;48240;52.962;5.790;2023-08-21T11:41:26;9.20;;;1.27;;
62256;SDS011;48240;52.962;5.790;2023-08-21T11:43:52;9.88;;;2.05;;
62256;SDS011;48240;52.962;5.790;2023-08-21T11:46:18;4.90;;;1.40;;
62256;SDS011;48240;52.962;5.790;2023-08-21T11:48:44;6.22;;;1.77;;
62256;SDS011;48240;52.962;5.790;2023-08-21T11:51:11;6.07;;;1.40;;
62256;SDS011;48240;52.962;5.790;2023-08-21T11:56:03;3.80;;;1.10;;
62256;SDS011;48240;52.962;5.790;2023-08-21T11:58:38;5.97;;;1.23;;
62256;SDS011;48240;52.962;5.790;2023-08-21T12:01:05;4.32;;;1.27;;
62256;SDS011;48240;52.962;5.790;2023-08-21T12:03:38;3.17;;;1.20;;
62256;SDS011;48240;52.962;5.790;2023-08-21T12:06:05;5.07;;;1.35;;
62256;SDS011;48240;52.962;5.790;2023-08-21T12:08:31;4.15;;;1.20;;
62256;SDS011;48240;52.962;5.790;2023-08-21T12:10:57;5.15;;;1.23;;
62256;SDS011;48240;52.962;5.790;2023-08-21T12:13:24;5.78;;;1.42;;
62256;SDS011;48240;52.962;5.790;2023-08-21T12:15:50;5.75;;;1.30;;
62256;SDS011;48240;52.962;5.790;2023-08-21T12:18:16;5.28;;;1.40;;
62256;SDS011;48240;52.962;5.790;2023-08-21T12:20:42;2.65;;;1.42;;
62256;SDS011;48240;52.962;5.790;2023-08-21T12:23:08;3.83;;;1.05;;
62256;SDS011;48240;52.962;5.790;2023-08-21T12:25:34;5.03;;;1.17;;
62256;SDS011;48240;52.962;5.790;2023-08-21T12:28:00;3.15;;;1.20;;
62256;SDS011;48240;52.962;5.790;2023-08-21T12:30:26;3.97;;;1.33;;
62256;SDS011;48240;52.962;5.790;2023-08-21T12:32:52;4.75;;;1.10;;
62256;SDS011;48240;52.962;5.790;2023-08-21T12:35:19;4.50;;;1.17;;
62256;SDS011;48240;52.962;5.790;2023-08-21T12:37:45;3.03;;;1.40;;
62256;SDS011;48240;52.962;5.790;2023-08-21T12:40:11;2.55;;;1.25;;
62256;SDS011;48240;52.962;5.790;2023-08-21T12:42:37;3.35;;;1.13;;
62256;SDS011;48240;52.962;5.790;2023-08-21T12:45:03;3.67;;;1.25;;
62256;SDS011;48240;52.962;5.790;2023-08-21T12:47:30;3.70;;;1.08;;
62256;SDS011;48240;52.962;5.790;2023-08-21T12:49:56;3.42;;;1.13;;
62256;SDS011;48240;52.962;5.790;2023-08-21T12:52:22;2.35;;;1.20;;
62256;SDS011;48240;52.962;5.790;2023-08-21T12:54:48;3.05;;;1.08;;
62256;SDS011;48240;52.962;5.790;2023-08-21T12:57:14;3.78;;;1.08;;
62256;SDS011;48240;52.962;5.790;2023-08-21T12:59:42;4.65;;;1.35;;
62256;SDS011;48240;52.962;5.790;2023-08-21T13:02:08;2.58;;;1.10;;
62256;SDS011;48240;52.962;5.790;2023-08-21T13:04:34;2.55;;;1.10;;
62256;SDS011;48240;52.962;5.790;2023-08-21T13:07:00;4.47;;;1.63;;
62256;SDS011;48240;52.962;5.790;2023-08-21T13:09:28;8.15;;;1.20;;
62256;SDS011;48240;52.962;5.790;2023-08-21T13:11:54;2.85;;;1.15;;
62256;SDS011;48240;52.962;5.790;2023-08-21T13:14:20;2.65;;;1.33;;
62256;SDS011;48240;52.962;5.790;2023-08-21T13:16:46;4.25;;;1.50;;
62256;SDS011;48240;52.962;5.790;2023-08-21T13:19:12;3.03;;;1.25;;
62256;SDS011;48240;52.962;5.790;2023-08-21T13:21:39;4.68;;;1.40;;
62256;SDS011;48240;52.962;5.790;2023-08-21T13:24:05;7.82;;;1.42;;
62256;SDS011;48240;52.962;5.790;2023-08-21T13:26:32;10.68;;;1.58;;
62256;SDS011;48240;52.962;5.790;2023-08-21T13:28:58;8.35;;;1.70;;
62256;SDS011;48240;52.962;5.790;2023-08-21T13:31:24;7.22;;;1.50;;
62256;SDS011;48240;52.962;5.790;2023-08-21T13:33:52;3.33;;;1.30;;
62256;SDS011;48240;52.962;5.790;2023-08-21T13:36:19;5.38;;;1.58;;
62256;SDS011;48240;52.962;5.790;2023-08-21T13:38:46;5.18;;;1.30;;
62256;SDS011;48240;52.962;5.790;2023-08-21T13:41:12;5.45;;;1.60;;
62256;SDS011;48240;52.962;5.790;2023-08-21T13:43:38;7.78;;;1.60;;
62256;SDS011;48240;52.962;5.790;2023-08-21T13:46:04;4.43;;;1.45;;
62256;SDS011;48240;52.962;5.790;2023-08-21T13:48:30;5.65;;;1.50;;
62256;SDS011;48240;52.962;5.790;2023-08-21T13:50:57;3.65;;;1.27;;
62256;SDS011;48240;52.962;5.790;2023-08-21T13:53:23;6.00;;;1.48;;
62256;SDS011;48240;52.962;5.790;2023-08-21T13:55:50;5.00;;;1.48;;
62256;SDS011;48240;52.962;5.790;2023-08-21T13:58:16;5.40;;;1.70;;
62256;SDS011;48240;52.962;5.790;2023-08-21T14:00:42;5.30;;;1.85;;
62256;SDS011;48240;52.962;5.790;2023-08-21T14:03:09;4.95;;;1.42;;
62256;SDS011;48240;52.962;5.790;2023-08-21T14:05:35;4.78;;;1.40;;
62256;SDS011;48240;52.962;5.790;2023-08-21T14:08:02;4.80;;;1.40;;
62256;SDS011;48240;52.962;5.790;2023-08-21T14:10:28;6.13;;;1.50;;
62256;SDS011;48240;52.962;5.790;2023-08-21T14:12:55;5.00;;;1.48;;
62256;SDS011;48240;52.962;5.790;2023-08-21T14:15:24;5.70;;;1.42;;
62256;SDS011;48240;52.962;5.790;2023-08-21T14:17:50;3.10;;;1.33;;
62256;SDS011;48240;52.962;5.790;2023-08-21T14:20:16;4.68;;;1.35;;
62256;SDS011;48240;52.962;5.790;2023-08-21T14:22:42;3.88;;;1.20;;
62256;SDS011;48240;52.962;5.790;2023-08-21T14:25:09;4.20;;;1.50;;
62256;SDS011;48240;52.962;5.790;2023-08-21T14:27:35;2.80;;;1.40;;
62256;SDS011;48240;52.962;5.790;2023-08-21T14:30:01;5.18;;;1.80;;
62256;SDS011;48240;52.962;5.790;2023-08-21T14:32:28;4.55;;;1.50;;
62256;SDS011;48240;52.962;5.790;2023-08-21T14:34:54;2.65;;;1.30;;
62256;SDS011;48240;52.962;5.790;2023-08-21T14:37:21;3.10;;;1.30;;
62256;SDS011;48240;52.962;5.790;2023-08-21T14:39:49;4.07;;;1.20;;
62256;SDS011;48240;52.962;5.790;2023-08-21T14:42:15;2.30;;;1.13;;
62256;SDS011;48240;52.962;5.790;2023-08-21T14:44:41;4.50;;;1.30;;
62256;SDS011;48240;52.962;5.790;2023-08-21T14:47:07;3.20;;;1.23;;
62256;SDS011;48240;52.962;5.790;2023-08-21T14:49:33;5.25;;;1.83;;
62256;SDS011;48240;52.962;5.790;2023-08-21T14:51:59;3.38;;;1.05;;
62256;SDS011;48240;52.962;5.790;2023-08-21T14:54:25;2.58;;;1.00;;
62256;SDS011;48240;52.962;5.790;2023-08-21T14:56:51;2.40;;;0.95;;
62256;SDS011;48240;52.962;5.790;2023-08-21T14:59:18;3.47;;;1.00;;
62256;SDS011;48240;52.962;5.790;2023-08-21T15:01:44;3.10;;;1.30;;
62256;SDS011;48240;52.962;5.790;2023-08-21T15:04:10;4.32;;;1.63;;
62256;SDS011;48240;52.962;5.790;2023-08-21T15:06:37;4.97;;;1.42;;
62256;SDS011;48240;52.962;5.790;2023-08-21T15:09:03;2.88;;;1.10;;
62256;SDS011;48240;52.962;5.790;2023-08-21T15:11:30;3.22;;;1.25;;
62256;SDS011;48240;52.962;5.790;2023-08-21T15:13:56;4.40;;;1.30;;
62256;SDS011;48240;52.962;5.790;2023-08-21T15:16:23;3.75;;;1.17;;
62256;SDS011;48240;52.962;5.790;2023-08-21T15:18:49;4.25;;;1.40;;
62256;SDS011;48240;52.962;5.790;2023-08-21T15:21:17;5.85;;;1.20;;
62256;SDS011;48240;52.962;5.790;2023-08-21T15:23:44;5.47;;;1.35;;
62256;SDS011;48240;52.962;5.790;2023-08-21T15:26:10;3.10;;;1.10;;
62256;SDS011;48240;52.962;5.790;2023-08-21T15:28:36;3.90;;;1.13;;
62256;SDS011;48240;52.962;5.790;2023-08-21T15:31:02;4.25;;;1.30;;
62256;SDS011;48240;52.962;5.790;2023-08-21T15:33:30;2.53;;;1.20;;
62256;SDS011;48240;52.962;5.790;2023-08-21T15:35:56;2.92;;;1.25;;
62256;SDS011;48240;52.962;5.790;2023-08-21T15:38:22;3.35;;;1.40;;
62256;SDS011;48240;52.962;5.790;2023-08-21T15:40:48;4.75;;;1.27;;
62256;SDS011;48240;52.962;5.790;2023-08-21T15:43:14;3.35;;;1.20;;
62256;SDS011;48240;52.962;5.790;2023-08-21T15:45:40;3.40;;;1.30;;
62256;SDS011;48240;52.962;5.790;2023-08-21T15:48:06;3.42;;;1.25;;
62256;SDS011;48240;52.962;5.790;2023-08-21T15:50:32;2.83;;;1.23;;
62256;SDS011;48240;52.962;5.790;2023-08-21T15:52:58;5.78;;;1.33;;
62256;SDS011;48240;52.962;5.790;2023-08-21T15:55:24;7.40;;;0.95;;
62256;SDS011;48240;52.962;5.790;2023-08-21T15:57:50;4.70;;;1.55;;
62256;SDS011;48240;52.962;5.790;2023-08-21T16:00:16;5.15;;;1.27;;
62256;SDS011;48240;52.962;5.790;2023-08-21T16:02:43;4.82;;;1.20;;
62256;SDS011;48240;52.962;5.790;2023-08-21T16:05:09;7.25;;;1.27;;
62256;SDS011;48240;52.962;5.790;2023-08-21T16:07:36;10.20;;;1.55;;
62256;SDS011;48240;52.962;5.790;2023-08-21T16:10:02;7.80;;;1.40;;
62256;SDS011;48240;52.962;5.790;2023-08-21T16:12:29;7.93;;;1.30;;
62256;SDS011;48240;52.962;5.790;2023-08-21T16:14:55;8.00;;;1.17;;
62256;SDS011;48240;52.962;5.790;2023-08-21T16:17:21;10.18;;;1.67;;
62256;SDS011;48240;52.962;5.790;2023-08-21T16:19:47;6.63;;;1.30;;
62256;SDS011;48240;52.962;5.790;2023-08-21T16:22:13;6.45;;;1.27;;
62256;SDS011;48240;52.962;5.790;2023-08-21T16:24:39;1.83;;;1.20;;
62256;SDS011;48240;52.962;5.790;2023-08-21T16:27:05;7.03;;;1.60;;
62256;SDS011;48240;52.962;5.790;2023-08-21T16:29:32;5.50;;;1.10;;
62256;SDS011;48240;52.962;5.790;2023-08-21T16:31:58;2.90;;;1.05;;
62256;SDS011;48240;52.962;5.790;2023-08-21T16:34:24;4.82;;;1.25;;
62256;SDS011;48240;52.962;5.790;2023-08-21T16:36:50;7.32;;;1.60;;
62256;SDS011;48240;52.962;5.790;2023-08-21T16:39:17;7.43;;;1.10;;
62256;SDS011;48240;52.962;5.790;2023-08-21T16:41:43;4.45;;;1.27;;
62256;SDS011;48240;52.962;5.790;2023-08-21T16:44:09;5.22;;;1.25;;
62256;SDS011;48240;52.962;5.790;2023-08-21T16:46:35;5.07;;;1.25;;
62256;SDS011;48240;52.962;5.790;2023-08-21T16:49:01;4.47;;;1.30;;
62256;SDS011;48240;52.962;5.790;2023-08-21T16:51:31;4.33;;;1.70;;
62256;SDS011;48240;52.962;5.790;2023-08-21T16:53:57;3.75;;;1.20;;
62256;SDS011;48240;52.962;5.790;2023-08-21T16:56:24;7.00;;;1.27;;
62256;SDS011;48240;52.962;5.790;2023-08-21T16:58:51;3.83;;;1.10;;
62256;SDS011;48240;52.962;5.790;2023-08-21T17:01:17;6.88;;;1.55;;
62256;SDS011;48240;52.962;5.790;2023-08-21T17:03:43;5.75;;;1.50;;
62256;SDS011;48240;52.962;5.790;2023-08-21T17:06:09;6.07;;;1.50;;
62256;SDS011;48240;52.962;5.790;2023-08-21T17:08:35;3.50;;;1.63;;
62256;SDS011;48240;52.962;5.790;2023-08-21T17:11:01;4.10;;;1.38;;
62256;SDS011;48240;52.962;5.790;2023-08-21T17:13:28;4.05;;;1.20;;
62256;SDS011;48240;52.962;5.790;2023-08-21T17:15:54;5.57;;;1.40;;
62256;SDS011;48240;52.962;5.790;2023-08-21T17:18:20;4.35;;;1.30;;
62256;SDS011;48240;52.962;5.790;2023-08-21T17:20:47;6.00;;;1.35;;
62256;SDS011;48240;52.962;5.790;2023-08-21T17:23:13;3.35;;;1.13;;
62256;SDS011;48240;52.962;5.790;2023-08-21T17:25:39;4.68;;;1.23;;
62256;SDS011;48240;52.962;5.790;2023-08-21T17:28:05;2.88;;;1.30;;
62256;SDS011;48240;52.962;5.790;2023-08-21T17:30:32;3.08;;;1.55;;
62256;SDS011;48240;52.962;5.790;2023-08-21T17:32:59;3.95;;;1.50;;
62256;SDS011;48240;52.962;5.790;2023-08-21T17:35:25;5.28;;;1.48;;
62256;SDS011;48240;52.962;5.790;2023-08-21T17:37:52;5.82;;;1.58;;
62256;SDS011;48240;52.962;5.790;2023-08-21T17:40:18;4.95;;;1.33;;
62256;SDS011;48240;52.962;5.790;2023-08-21T17:42:44;6.10;;;1.30;;
62256;SDS011;48240;52.962;5.790;2023-08-21T17:45:10;3.90;;;1.30;;
62256;SDS011;48240;52.962;5.790;2023-08-21T17:47:37;3.25;;;1.27;;
62256;SDS011;48240;52.962;5.790;2023-08-21T17:50:03;1.95;;;1.10;;
62256;SDS011;48240;52.962;5.790;2023-08-21T17:52:29;5.68;;;1.40;;
62256;SDS011;48240;52.962;5.790;2023-08-21T17:54:55;3.67;;;1.30;;
62256;SDS011;48240;52.962;5.790;2023-08-21T17:57:21;6.00;;;1.92;;
62256;SDS011;48240;52.962;5.790;2023-08-21T17:59:48;7.32;;;1.67;;
62256;SDS011;48240;52.962;5.790;2023-08-21T18:02:14;4.25;;;1.10;;
62256;SDS011;48240;52.962;5.790;2023-08-21T18:04:41;5.10;;;1.70;;
62256;SDS011;48240;52.962;5.790;2023-08-21T18:07:07;8.25;;;1.40;;
62256;SDS011;48240;52.962;5.790;2023-08-21T18:09:33;4.32;;;1.55;;
62256;SDS011;48240;52.962;5.790;2023-08-21T18:12:02;4.88;;;1.83;;
62256;SDS011;48240;52.962;5.790;2023-08-21T18:14:28;5.22;;;1.30;;
62256;SDS011;48240;52.962;5.790;2023-08-21T18:16:57;3.20;;;1.10;;
62256;SDS011;48240;52.962;5.790;2023-08-21T18:19:28;2.20;;;1.08;;
62256;SDS011;48240;52.962;5.790;2023-08-21T18:21:54;5.05;;;1.17;;
62256;SDS011;48240;52.962;5.790;2023-08-21T18:24:20;2.63;;;1.20;;
62256;SDS011;48240;52.962;5.790;2023-08-21T18:26:46;3.40;;;1.00;;
62256;SDS011;48240;52.962;5.790;2023-08-21T18:29:12;3.08;;;1.00;;
62256;SDS011;48240;52.962;5.790;2023-08-21T18:31:38;2.95;;;1.10;;
62256;SDS011;48240;52.962;5.790;2023-08-21T18:34:05;4.30;;;1.10;;
62256;SDS011;48240;52.962;5.790;2023-08-21T18:36:31;3.50;;;1.10;;
62256;SDS011;48240;52.962;5.790;2023-08-21T18:38:58;3.35;;;0.82;;
62256;SDS011;48240;52.962;5.790;2023-08-21T18:41:27;3.83;;;1.13;;
62256;SDS011;48240;52.962;5.790;2023-08-21T18:43:53;2.80;;;0.95;;
62256;SDS011;48240;52.962;5.790;2023-08-21T18:46:20;3.70;;;1.35;;
62256;SDS011;48240;52.962;5.790;2023-08-21T18:48:46;6.53;;;1.25;;
62256;SDS011;48240;52.962;5.790;2023-08-21T18:51:12;5.80;;;1.10;;
62256;SDS011;48240;52.962;5.790;2023-08-21T18:53:38;4.82;;;1.30;;